Time;durP1;ratioP1;P1;durP2;ratioP2;P2;SDS_P1;SDS_P2;PMS_P1;PMS_P2;Temp;Humidity;BMP_temperature;BMP_pressure;BME280_temperature;BME280_humidity;BME280_pressure;Samples;Min_cycle;Max_cycle;Signal;HPM_P1;HPM_P2
2022/08/13 00:00:43;;;;;;;3.42;2.47;;;;;;;22.95;37.58;99902.78;4985397;28;20400;-88
2022/08/13 00:03:14;;;;;;;4.32;2.20;;;;;;;22.99;37.50;99905.09;5036337;28;20055;-87
2022/08/13 00:06:04;;;;;;;2.47;2.28;;;;;;;23.00;37.11;99910.31;4983894;28;20133;-85
2022/08/13 00:08:33;;;;;;;3.55;2.10;;;;;;;23.04;37.00;99902.56;5033372;28;20045;-88
2022/08/13 00:11:00;;;;;;;1.88;1.70;;;;;;;23.04;37.08;99903.38;4991845;28;20050;-89
2022/08/13 00:13:27;;;;;;;2.13;1.95;;;;;;;22.99;37.08;99903.19;5007428;28;20041;-92
2022/08/13 00:16:10;;;;;;;4.15;2.03;;;;;;;23.00;36.96;99904.88;4993429;28;20049;-84
2022/08/13 00:18:38;;;;;;;5.00;2.45;;;;;;;22.94;37.38;99908.41;5012413;28;20064;-84
2022/08/13 00:21:07;;;;;;;3.67;2.40;;;;;;;22.85;37.71;99924.06;5009572;28;20045;-85
2022/08/13 00:23:38;;;;;;;2.70;2.20;;;;;;;22.75;38.85;99927.22;5025606;28;20053;-84
2022/08/13 00:26:26;;;;;;;2.88;2.60;;;;;;;22.66;39.93;99924.94;4975872;28;20056;-84
2022/08/13 00:29:01;;;;;;;3.50;2.40;;;;;;;22.67;39.00;99918.47;4976095;28;20419;-84
2022/08/13 00:31:28;;;;;;;3.63;2.33;;;;;;;22.67;38.47;99908.50;5021936;28;20064;-84
2022/08/13 00:33:55;;;;;;;2.35;2.17;;;;;;;22.72;38.23;99906.00;5036853;28;20673;-85
2022/08/13 00:36:23;;;;;;;2.83;2.20;;;;;;;22.73;37.94;99909.53;5006351;28;20557;-84
2022/08/13 00:39:07;;;;;;;5.90;2.20;;;;;;;22.63;37.87;99903.72;4978517;28;20045;-84
2022/08/13 00:41:38;;;;;;;2.40;2.20;;;;;;;22.63;38.51;99912.69;4988641;28;20037;-84
2022/08/13 00:44:25;;;;;;;3.10;1.90;;;;;;;22.61;37.81;99901.22;4943010;28;20060;-84
2022/08/13 00:48:41;;;;;;;2.28;1.90;;;;;;;22.58;38.51;99909.78;5031513;28;20042;-91
2022/08/13 00:49:47;;;;;;;2.63;2.30;;;;;;;22.53;38.38;99909.59;4992005;28;20037;-83
2022/08/13 00:52:30;;;;;;;3.05;2.38;;;;;;;22.53;38.22;99905.00;4969113;28;20496;-83
2022/08/13 00:55:05;;;;;;;2.70;2.50;;;;;;;22.41;38.45;99914.81;4988132;28;20493;-84
2022/08/13 00:57:33;;;;;;;5.50;2.15;;;;;;;22.51;38.47;99906.25;5002232;28;20121;-83
2022/08/13 01:00:07;;;;;;;2.05;1.85;;;;;;;22.41;38.79;99897.75;5009811;28;20049;-83
2022/08/13 01:02:43;;;;;;;6.35;2.40;;;;;;;22.32;39.34;99910.66;4954779;28;20050;-83
2022/08/13 01:05:24;;;;;;;4.53;2.05;;;;;;;22.38;38.87;99906.28;4981646;28;20417;-84
2022/08/13 01:07:54;;;;;;;4.20;2.28;;;;;;;22.31;39.02;99904.44;5007218;28;20052;-84
2022/08/13 01:10:25;;;;;;;3.35;2.58;;;;;;;22.32;38.63;99895.28;5033957;28;20069;-84
2022/08/13 01:12:54;;;;;;;2.60;2.40;;;;;;;22.29;38.67;99895.69;4992559;28;20127;-84
2022/08/13 01:15:23;;;;;;;4.50;2.30;;;;;;;22.33;38.45;99899.63;5004712;28;20510;-84
2022/08/13 01:17:53;;;;;;;4.18;2.50;;;;;;;22.23;39.12;99895.69;5041645;28;20409;-88
2022/08/13 01:20:26;;;;;;;2.97;2.30;;;;;;;22.17;39.45;99904.63;5005883;28;20040;-88
2022/08/13 01:23:01;;;;;;;5.15;2.30;;;;;;;22.24;39.12;99902.78;4989820;28;20103;-88
2022/08/13 01:25:30;;;;;;;2.35;2.10;;;;;;;22.16;39.10;99895.69;4993215;28;20033;-83
2022/08/13 01:28:09;;;;;;;3.58;2.15;;;;;;;22.10;39.71;99904.63;5005016;28;20111;-82
2022/08/13 01:30:37;;;;;;;3.20;2.50;;;;;;;22.02;39.91;99902.13;4990756;28;20037;-83
2022/08/13 01:33:08;;;;;;;5.60;2.80;;;;;;;21.97;39.83;99910.03;4992171;28;20055;-83
2022/08/13 01:35:36;;;;;;;3.92;2.38;;;;;;;22.03;39.45;99914.59;5002948;28;20072;-83
2022/08/13 01:38:08;;;;;;;3.42;2.38;;;;;;;21.89;39.51;99916.50;5006645;28;20563;-83
2022/08/13 01:40:36;;;;;;;3.53;2.45;;;;;;;21.98;39.42;99915.25;5004917;28;20136;-83
2022/08/13 01:43:07;;;;;;;6.35;2.50;;;;;;;21.88;39.52;99915.66;4978277;28;20394;-83
2022/08/13 01:45:50;;;;;;;4.05;2.20;;;;;;;21.99;39.44;99906.09;5000086;28;20405;-83
2022/08/13 01:51:08;;;;;;;2.63;2.38;;;;;;;21.84;40.49;99914.41;5001901;28;20052;-83
2022/08/13 01:53:46;;;;;;;4.38;2.88;;;;;;;21.82;40.44;99904.84;5003804;28;20098;-82
2022/08/13 01:56:16;;;;;;;2.67;2.05;;;;;;;21.82;40.13;99902.13;5007845;28;20065;-83
2022/08/13 01:58:47;;;;;;;2.63;2.20;;;;;;;21.81;40.41;99906.72;5001228;28;20045;-82
2022/08/13 02:01:34;;;;;;;3.58;2.17;;;;;;;21.67;40.79;99908.56;4935332;28;20111;-82
2022/08/13 02:04:12;;;;;;;2.88;2.03;;;;;;;21.62;40.80;99904.81;4971913;28;20555;-83
2022/08/13 02:06:39;;;;;;;3.30;2.38;;;;;;;21.68;40.69;99904.00;4987117;28;20053;-82
2022/08/13 02:09:09;;;;;;;2.83;2.05;;;;;;;21.68;40.98;99901.31;4984178;28;20512;-83
2022/08/13 02:11:56;;;;;;;3.53;2.22;;;;;;;21.64;41.20;99898.16;4992697;28;20061;-82
2022/08/13 02:14:27;;;;;;;2.13;1.92;;;;;;;21.77;40.67;99888.41;5020086;28;20068;-91
2022/08/13 02:16:57;;;;;;;3.37;2.50;;;;;;;21.63;41.13;99890.28;5010061;28;20120;-90
2022/08/13 02:19:24;;;;;;;2.58;2.10;;;;;;;21.70;41.22;99896.50;4995351;28;20057;-91
2022/08/13 02:21:58;;;;;;;4.50;2.25;;;;;;;21.66;41.33;99895.28;5021469;28;20124;-90
2022/08/13 02:24:28;;;;;;;3.50;2.22;;;;;;;21.65;41.53;99893.59;5001315;28;20041;-91
2022/08/13 02:26:57;;;;;;;2.42;2.08;;;;;;;21.63;41.18;99895.69;5036922;28;20052;-90
2022/08/13 02:29:25;;;;;;;3.35;2.10;;;;;;;21.62;41.05;99896.72;4973667;28;20041;-92
2022/08/13 02:31:52;;;;;;;2.92;2.20;;;;;;;21.51;41.15;99895.47;5006739;28;20050;-90
2022/08/13 02:34:39;;;;;;;3.65;2.40;;;;;;;21.49;41.35;99894.81;4992045;28;20050;-91
2022/08/13 02:37:07;;;;;;;3.15;2.10;;;;;;;21.42;41.60;99892.13;5024014;28;20050;-83
2022/08/13 02:39:54;;;;;;;2.60;2.40;;;;;;;21.44;41.66;99891.91;4972851;28;20080;-83
2022/08/13 02:42:22;;;;;;;4.93;2.50;;;;;;;21.45;41.56;99893.59;4988075;28;20056;-83
2022/08/13 02:44:50;;;;;;;2.38;2.17;;;;;;;21.40;41.63;99893.38;5003804;28;20515;-82
2022/08/13 02:47:21;;;;;;;2.08;1.98;;;;;;;21.32;41.83;99896.22;5019311;28;20037;-82
2022/08/13 02:50:08;;;;;;;2.30;2.10;;;;;;;21.31;41.76;99898.09;4983675;28;20049;-83
2022/08/13 02:52:40;;;;;;;2.60;2.40;;;;;;;21.28;41.98;99901.19;4982457;28;20081;-82
2022/08/13 02:55:25;;;;;;;2.90;2.70;;;;;;;21.22;41.85;99908.25;4978968;28;20136;-83
2022/08/13 02:57:59;;;;;;;4.93;2.67;;;;;;;21.21;42.15;99906.56;5019846;28;20164;-83
2022/08/13 03:00:26;;;;;;;10.88;2.60;;;;;;;21.18;42.40;99900.75;4994527;28;20080;-83
2022/08/13 03:02:57;;;;;;;3.72;2.40;;;;;;;21.25;42.20;99910.53;4992022;28;20108;-83
2022/08/13 03:05:31;;;;;;;2.80;2.60;;;;;;;21.23;42.23;99906.38;5002394;28;20488;-89
2022/08/13 03:08:18;;;;;;;3.28;2.45;;;;;;;21.14;42.98;99907.59;4979076;28;20133;-89
2022/08/13 03:11:05;;;;;;;2.50;2.30;;;;;;;21.03;43.30;99901.72;4985658;28;20057;-88
2022/08/13 03:13:36;;;;;;;4.13;2.38;;;;;;;21.12;42.98;99904.28;4995470;28;20049;-89
2022/08/13 03:16:16;;;;;;;2.53;2.33;;;;;;;20.89;44.26;99900.03;4997502;28;20045;-89
2022/08/13 03:18:46;;;;;;;4.40;2.47;;;;;;;20.98;44.23;99897.97;5000307;28;20054;-83
2022/08/13 03:21:25;;;;;;;4.80;2.70;;;;;;;20.96;44.24;99894.66;4983125;28;20041;-84
2022/08/13 03:24:19;;;;;;;2.80;2.35;;;;;;;20.80;44.62;99904.75;4957367;28;20046;-82
2022/08/13 03:26:58;;;;;;;2.53;2.30;;;;;;;20.98;44.08;99906.91;4908452;28;20156;-84
2022/08/13 03:29:26;;;;;;;3.45;2.70;;;;;;;20.94;44.51;99894.00;4923043;28;20143;-83
2022/08/13 03:32:16;;;;;;;3.65;2.40;;;;;;;20.99;44.46;99899.66;4916470;28;20047;-83
2022/08/13 03:34:44;;;;;;;3.10;2.40;;;;;;;20.91;44.52;99899.81;4955166;28;20046;-83
2022/08/13 03:37:11;;;;;;;4.60;2.45;;;;;;;20.87;44.83;99901.28;4939609;28;20054;-91
2022/08/13 03:39:40;;;;;;;2.78;2.47;;;;;;;20.84;44.87;99894.41;4952779;28;20051;-89
2022/08/13 03:42:09;;;;;;;6.18;2.55;;;;;;;20.77;45.27;99894.38;4929608;28;20052;-91
2022/08/13 03:44:40;;;;;;;4.35;2.10;;;;;;;20.86;44.96;99897.72;4930074;28;20158;-91
2022/08/13 03:47:06;;;;;;;4.32;2.22;;;;;;;20.91;44.71;99897.94;4916386;28;20047;-91
2022/08/13 03:49:53;;;;;;;3.47;2.55;;;;;;;20.86;44.12;99899.59;4876529;28;20094;-87
2022/08/13 03:52:21;;;;;;;5.47;2.50;;;;;;;20.73;44.44;99894.97;4962236;28;20147;-86
2022/08/13 03:55:09;;;;;;;4.40;2.78;;;;;;;20.57;45.08;99901.53;4921695;28;20235;-87
2022/08/13 03:57:44;;;;;;;3.08;2.47;;;;;;;20.64;44.34;99902.41;4962608;28;20045;-88
2022/08/13 04:00:31;;;;;;;2.65;2.45;;;;;;;20.54;44.42;99900.06;4986666;28;20048;-88
2022/08/13 04:03:00;;;;;;;3.33;2.58;;;;;;;20.53;44.37;99902.91;5020337;28;20046;-88
2022/08/13 04:05:28;;;;;;;2.55;2.35;;;;;;;20.43;44.63;99897.06;5032791;28;20041;-89
2022/08/13 04:08:15;;;;;;;3.17;2.30;;;;;;;20.44;44.75;99904.13;5001339;28;20053;-88
2022/08/13 04:10:42;;;;;;;3.05;2.50;;;;;;;20.42;44.91;99898.09;4985404;28;20042;-92
2022/08/13 04:13:20;;;;;;;3.67;2.70;;;;;;;20.39;45.35;99889.38;4974099;28;20057;-92
2022/08/13 04:16:11;;;;;;;4.65;2.70;;;;;;;20.33;45.45;99900.13;4974020;28;20112;-92
2022/08/13 04:18:40;;;;;;;3.70;2.47;;;;;;;20.35;45.28;99900.75;5007856;28;20046;-92
2022/08/13 04:21:11;;;;;;;3.72;2.72;;;;;;;20.34;45.63;99899.91;4994226;28;20042;-92
2022/08/13 04:23:48;;;;;;;4.03;2.67;;;;;;;20.40;46.05;99900.97;4999718;28;20092;-88
2022/08/13 04:26:16;;;;;;;3.90;2.40;;;;;;;20.27;46.66;99898.19;4988593;28;20049;-89
2022/08/13 04:29:04;;;;;;;3.70;2.70;;;;;;;20.32;46.72;99891.19;4960133;28;20050;-88
2022/08/13 04:31:33;;;;;;;5.53;2.53;;;;;;;20.44;46.56;99896.88;5029558;28;20062;-88
2022/08/13 04:34:14;;;;;;;3.40;2.80;;;;;;;20.38;46.62;99894.97;5002158;28;20053;-88
2022/08/13 04:37:01;;;;;;;5.65;3.13;;;;;;;20.47;46.42;99890.25;4988008;28;20041;-83
2022/08/13 04:39:30;;;;;;;3.38;2.45;;;;;;;20.38;46.19;99892.28;4986979;28;20057;-83
2022/08/13 04:42:16;;;;;;;3.13;2.83;;;;;;;20.29;47.04;99893.44;4931991;28;20974;-83
2022/08/13 04:45:04;;;;;;;5.13;2.60;;;;;;;20.28;47.10;99897.19;4989123;28;20123;-82
2022/08/13 04:47:42;;;;;;;4.70;3.10;;;;;;;20.34;47.49;99897.22;4979373;28;20148;-83
2022/08/13 04:50:11;;;;;;;5.20;3.35;;;;;;;20.34;48.09;99896.38;4987373;28;20572;-83
2022/08/13 04:52:39;;;;;;;8.30;3.40;;;;;;;20.47;47.44;99904.56;4992947;28;20227;-83
2022/08/13 04:55:10;;;;;;;3.40;3.10;;;;;;;20.40;47.82;99898.28;4979282;28;20045;-89
2022/08/13 04:57:41;;;;;;;3.25;2.88;;;;;;;20.50;47.62;99900.63;5017060;28;20033;-88
2022/08/13 05:00:24;;;;;;;5.78;3.03;;;;;;;20.51;48.28;99899.63;5003963;28;20083;-88
2022/08/13 05:02:52;;;;;;;4.28;3.17;;;;;;;20.56;47.85;99910.66;5009000;28;20041;-88
2022/08/13 05:05:24;;;;;;;6.25;2.88;;;;;;;20.65;47.90;99911.31;5011698;28;20045;-88
2022/08/13 05:07:52;;;;;;;4.57;3.00;;;;;;;20.57;47.67;99906.94;4973351;28;20050;-85
2022/08/13 05:10:19;;;;;;;3.33;3.03;;;;;;;20.59;47.64;99904.88;5021439;28;20045;-89
2022/08/13 05:13:03;;;;;;;3.33;2.95;;;;;;;20.49;48.12;99905.19;4992056;28;20082;-91
2022/08/13 05:15:34;;;;;;;3.55;2.90;;;;;;;20.56;47.75;99906.09;4999634;28;21552;-88
2022/08/13 05:18:16;;;;;;;3.75;2.70;;;;;;;20.64;47.39;99902.41;5005471;28;20118;-84
2022/08/13 05:21:01;;;;;;;3.40;2.92;;;;;;;20.66;48.17;99904.88;4989925;28;20116;-84
2022/08/13 05:23:34;;;;;;;5.90;3.88;;;;;;;20.76;47.57;99903.50;5021042;28;20520;-84
2022/08/13 05:26:25;;;;;;;4.22;3.10;;;;;;;20.60;47.56;99907.34;4922917;28;20510;-84
2022/08/13 05:29:06;;;;;;;8.70;3.55;;;;;;;20.83;47.16;99910.78;4992241;28;20049;-85
2022/08/13 05:31:34;;;;;;;4.95;2.90;;;;;;;20.88;47.06;99903.75;4994445;28;20048;-84
2022/08/13 05:34:20;;;;;;;5.03;3.05;;;;;;;20.93;46.59;99905.84;5014912;28;20438;-84
2022/08/13 05:36:47;;;;;;;4.43;3.00;;;;;;;21.02;46.49;99908.19;5003009;28;20050;-84
2022/08/13 05:39:34;;;;;;;3.78;3.03;;;;;;;20.91;46.55;99911.44;4978683;28;20207;-85
2022/08/13 05:42:09;;;;;;;3.35;3.00;;;;;;;20.90;46.75;99917.06;4988347;28;20049;-83
2022/08/13 05:44:36;;;;;;;3.30;3.00;;;;;;;20.99;46.49;99913.16;4989413;28;20045;-83
2022/08/13 05:47:05;;;;;;;3.65;2.92;;;;;;;21.10;46.37;99915.28;5024173;28;20057;-83
2022/08/13 05:49:33;;;;;;;4.32;2.97;;;;;;;21.07;46.26;99922.97;4989152;28;20437;-91
2022/08/13 05:52:20;;;;;;;4.65;3.15;;;;;;;21.07;45.84;99915.69;4979173;28;20116;-91
2022/08/13 05:55:09;;;;;;;3.88;2.75;;;;;;;21.09;46.31;99908.22;5023147;28;20042;-90
2022/08/13 05:57:57;;;;;;;3.13;2.90;;;;;;;21.30;46.02;99909.09;4933380;28;20107;-90
2022/08/13 06:03:27;;;;;;;3.10;2.80;;;;;;;21.46;45.94;99908.75;4993329;28;20049;-91
2022/08/13 06:06:16;;;;;;;4.47;2.65;;;;;;;21.51;45.82;99898.16;4952824;28;20093;-90
2022/08/13 06:08:56;;;;;;;4.18;3.70;;;;;;;21.59;46.12;99906.06;4992631;28;20049;-90
2022/08/13 06:11:24;;;;;;;3.78;2.90;;;;;;;21.68;46.14;99901.31;5030670;28;20379;-92
2022/08/13 06:14:20;;;;;;;2.85;2.65;;;;;;;21.60;46.15;99896.94;4979596;28;20049;-90
2022/08/13 06:16:51;;;;;;;5.45;2.88;;;;;;;21.65;45.82;99894.44;5035633;28;20095;-90
2022/08/13 06:19:25;;;;;;;3.15;2.65;;;;;;;21.84;45.51;99895.47;4973073;28;20049;-90
2022/08/13 06:22:04;;;;;;;5.50;3.30;;;;;;;21.94;45.64;99896.94;5019630;28;20500;-90
2022/08/13 06:24:35;;;;;;;3.33;2.65;;;;;;;21.96;45.58;99894.88;4977821;28;20053;-89
2022/08/13 06:27:19;;;;;;;9.57;2.83;;;;;;;21.97;45.30;99891.13;4986008;28;20052;-90
2022/08/13 06:29:49;;;;;;;3.38;2.35;;;;;;;22.13;45.36;99885.25;5022505;28;20063;-90
2022/08/13 06:32:20;;;;;;;7.75;2.90;;;;;;;22.24;44.78;99887.38;5034806;28;20468;-90
2022/08/13 06:35:08;;;;;;;4.53;2.40;;;;;;;22.28;44.29;99890.47;4967533;28;20050;-90
2022/08/13 06:37:41;;;;;;;6.22;2.88;;;;;;;22.36;42.82;99897.53;5021941;28;20046;-90
2022/08/13 06:40:20;;;;;;;4.60;2.65;;;;;;;22.45;42.04;99889.00;4989650;28;20045;-90
2022/08/13 06:43:05;;;;;;;6.43;2.75;;;;;;;22.38;41.32;99900.88;4962772;28;20513;-89
2022/08/13 06:45:33;;;;;;;3.58;2.60;;;;;;;22.52;41.95;99900.63;5004080;28;20038;-90
2022/08/13 06:48:01;;;;;;;6.03;2.33;;;;;;;22.65;41.79;99901.66;5012420;28;20066;-82
2022/08/13 06:50:34;;;;;;;3.13;2.50;;;;;;;22.71;41.11;99895.38;5009987;28;20050;-83
2022/08/13 06:53:05;;;;;;;4.32;2.22;;;;;;;22.64;40.66;99898.09;4980740;28;20077;-81
2022/08/13 06:55:52;;;;;;;2.60;2.40;;;;;;;22.71;40.85;99898.91;4937899;28;20132;-81
2022/08/13 06:58:44;;;;;;;3.33;2.30;;;;;;;22.76;40.65;99890.97;4981424;28;20513;-82
2022/08/13 07:01:17;;;;;;;5.45;2.42;;;;;;;22.85;40.49;99893.47;4968938;28;20042;-82
2022/08/13 07:03:44;;;;;;;4.75;2.53;;;;;;;22.89;40.50;99895.50;4955609;28;20046;-82
2022/08/13 07:06:27;;;;;;;3.47;2.63;;;;;;;22.90;40.32;99891.75;5000992;28;20537;-82
2022/08/13 07:09:01;;;;;;;2.78;2.25;;;;;;;22.96;40.69;99890.91;5002212;28;20394;-82
2022/08/13 07:11:30;;;;;;;5.38;2.53;;;;;;;22.96;40.49;99887.38;4994831;28;20049;-82
2022/08/13 07:14:06;;;;;;;3.20;2.50;;;;;;;23.03;40.21;99893.63;4986910;28;20046;-89
2022/08/13 07:16:42;;;;;;;2.72;2.40;;;;;;;23.08;39.95;99882.97;4975477;28;20054;-88
2022/08/13 07:19:14;;;;;;;5.70;2.22;;;;;;;23.15;40.32;99886.47;5010311;28;20041;-88
2022/08/13 07:21:46;;;;;;;4.50;2.47;;;;;;;23.17;39.99;99887.06;5034465;28;20050;-88
2022/08/13 07:24:13;;;;;;;2.70;2.50;;;;;;;23.22;39.98;99885.59;5021873;28;20047;-88
2022/08/13 07:27:05;;;;;;;2.80;2.20;;;;;;;23.25;40.16;99887.88;4983039;28;20786;-91
2022/08/13 07:29:41;;;;;;;3.78;2.40;;;;;;;23.30;40.20;99880.72;5019344;28;20137;-92
2022/08/13 07:32:21;;;;;;;4.60;2.72;;;;;;;23.37;40.05;99875.28;5023094;28;20045;-90
2022/08/13 07:34:58;;;;;;;3.75;2.47;;;;;;;23.46;39.99;99879.41;4939759;28;20047;-88
2022/08/13 07:37:26;;;;;;;2.60;2.38;;;;;;;23.48;39.92;99882.69;4976142;28;20512;-89
2022/08/13 07:39:55;;;;;;;2.40;2.10;;;;;;;23.50;40.11;99883.31;4958883;28;20087;-88
2022/08/13 07:42:27;;;;;;;4.35;2.50;;;;;;;23.57;39.99;99880.56;4974118;28;20054;-89
2022/08/13 07:45:07;;;;;;;2.42;2.20;;;;;;;23.62;40.08;99884.28;4941435;28;20051;-89
2022/08/13 07:47:56;;;;;;;3.60;2.40;;;;;;;23.67;39.84;99882.81;4928840;28;20164;-88
2022/08/13 07:50:43;;;;;;;5.68;2.58;;;;;;;23.73;39.91;99880.06;4941569;28;20043;-87
2022/08/13 07:53:32;;;;;;;3.33;2.40;;;;;;;23.81;39.96;99884.38;4947007;28;20054;-86
2022/08/13 07:56:21;;;;;;;2.97;2.67;;;;;;;23.82;39.43;99881.44;4899173;28;20122;-90
2022/08/13 07:58:56;;;;;;;3.13;2.47;;;;;;;23.84;39.52;99881.25;4877708;28;20039;-88
2022/08/13 08:01:27;;;;;;;3.25;2.50;;;;;;;23.88;39.93;99877.00;4962708;28;20477;-89
2022/08/13 08:04:15;;;;;;;3.30;2.58;;;;;;;23.95;39.95;99879.69;4933924;28;20416;-87
2022/08/13 08:06:55;;;;;;;2.88;2.40;;;;;;;23.99;39.83;99881.72;4946665;28;20478;-90
2022/08/13 08:09:31;;;;;;;2.67;2.42;;;;;;;24.02;39.78;99875.84;5022845;28;20077;-90
2022/08/13 08:14:54;;;;;;;2.47;2.28;;;;;;;24.11;39.71;99878.28;4991810;28;20104;-85
2022/08/13 08:17:27;;;;;;;4.53;2.63;;;;;;;24.13;38.93;99878.88;5035496;28;20037;-88
2022/08/13 08:20:18;;;;;;;4.47;2.70;;;;;;;24.15;39.43;99880.31;4997609;28;20103;-88
2022/08/13 08:22:48;;;;;;;3.25;2.50;;;;;;;24.20;39.44;99869.63;4964039;28;20049;-87
2022/08/13 08:25:20;;;;;;;4.32;2.65;;;;;;;24.23;39.57;99880.03;5001690;28;20045;-80
2022/08/13 08:27:49;;;;;;;4.90;2.60;;;;;;;24.30;38.97;99888.13;5004793;28;20076;-81
2022/08/13 08:30:37;;;;;;;3.80;2.65;;;;;;;24.28;38.40;99882.06;5014306;28;20096;-80
2022/08/13 08:33:26;;;;;;;3.58;2.80;;;;;;;24.24;38.29;99875.44;4987654;28;20049;-83
2022/08/13 08:36:13;;;;;;;2.78;2.58;;;;;;;24.32;38.45;99866.16;5005429;28;20041;-81
2022/08/13 08:44:42;;;;;;;2.60;2.40;;;;;;;24.52;38.18;99868.69;4977416;28;20049;-81
2022/08/13 08:47:11;;;;;;;4.85;2.65;;;;;;;24.54;37.73;99882.88;4972277;28;20978;-81
2022/08/13 08:49:40;;;;;;;3.58;2.47;;;;;;;24.56;37.81;99868.03;5007481;28;20057;-82
2022/08/13 08:52:12;;;;;;;3.03;2.50;;;;;;;24.53;38.03;99865.75;5008812;28;20061;-83
2022/08/13 08:54:45;;;;;;;2.60;2.40;;;;;;;24.58;38.09;99865.09;5007875;28;20651;-82
2022/08/13 08:57:18;;;;;;;4.13;2.45;;;;;;;24.62;37.87;99863.56;5039245;28;20049;-83
2022/08/13 08:59:48;;;;;;;2.78;2.50;;;;;;;24.66;38.03;99857.47;5000682;28;20595;-82
2022/08/13 09:02:24;;;;;;;2.80;2.35;;;;;;;24.69;37.22;99864.31;4992088;28;20095;-83
2022/08/13 09:04:54;;;;;;;2.58;2.38;;;;;;;24.73;36.72;99854.66;5002420;28;20128;-82
2022/08/13 09:07:26;;;;;;;3.92;2.65;;;;;;;24.76;37.28;99854.22;5039953;28;20140;-82
2022/08/13 09:09:57;;;;;;;3.13;2.30;;;;;;;24.81;37.43;99859.78;5008399;28;20448;-82
2022/08/13 09:12:26;;;;;;;2.92;2.20;;;;;;;24.85;37.24;99860.97;5023325;28;20041;-82
2022/08/13 09:14:56;;;;;;;5.65;2.80;;;;;;;24.86;36.79;99867.25;5035553;28;20045;-82
2022/08/13 09:17:23;;;;;;;3.30;2.55;;;;;;;24.87;36.31;99858.84;4990213;28;20088;-83
2022/08/13 09:20:03;;;;;;;3.40;2.80;;;;;;;24.88;36.76;99852.38;5005111;28;20060;-83
2022/08/13 09:22:31;;;;;;;3.05;2.75;;;;;;;24.94;37.17;99857.97;5002906;28;20067;-81
2022/08/13 09:24:58;;;;;;;4.07;2.40;;;;;;;24.99;36.05;99852.66;5016362;28;20045;-83
2022/08/13 09:27:30;;;;;;;2.53;2.33;;;;;;;24.97;35.43;99855.59;5023786;28;20045;-82
2022/08/13 09:30:17;;;;;;;5.32;2.80;;;;;;;25.00;35.73;99844.28;5004690;28;20080;-82
2022/08/13 09:32:49;;;;;;;2.75;2.40;;;;;;;25.03;35.74;99846.53;5004303;28;20052;-82
2022/08/13 09:35:16;;;;;;;5.45;2.35;;;;;;;25.06;36.07;99848.81;5022414;28;20100;-82
2022/08/13 09:37:43;;;;;;;2.67;2.47;;;;;;;25.08;35.75;99853.97;5004970;28;20041;-82
2022/08/13 09:40:30;;;;;;;3.53;2.33;;;;;;;25.06;35.47;99853.38;4983978;28;20046;-83
2022/08/13 09:43:18;;;;;;;3.50;2.17;;;;;;;25.07;35.61;99860.50;4979829;28;20053;-81
2022/08/13 09:46:05;;;;;;;3.17;2.78;;;;;;;25.07;35.30;99849.63;4960385;28;20571;-82
2022/08/13 09:48:32;;;;;;;2.00;1.90;;;;;;;25.06;34.85;99847.94;5031847;28;20046;-81
2022/08/13 09:51:13;;;;;;;2.70;2.35;;;;;;;25.05;34.86;99841.69;5008164;28;20053;-82
2022/08/13 09:54:03;;;;;;;6.00;2.15;;;;;;;25.12;35.29;99844.31;4929350;28;20119;-81
2022/08/13 09:56:36;;;;;;;2.90;1.90;;;;;;;25.17;34.96;99833.63;5000367;28;20116;-91
2022/08/13 09:59:08;;;;;;;5.45;2.42;;;;;;;25.21;34.82;99832.06;5012578;28;20057;-90
2022/08/13 10:01:41;;;;;;;3.67;2.10;;;;;;;25.26;34.74;99828.66;4982773;28;20112;-86
2022/08/13 10:04:26;;;;;;;2.97;2.22;;;;;;;25.29;34.88;99831.78;5007006;28;20053;-86
2022/08/13 10:06:55;;;;;;;6.70;2.30;;;;;;;25.33;34.45;99832.13;5038731;28;20409;-91
2022/08/13 10:09:26;;;;;;;3.92;2.10;;;;;;;25.34;34.58;99833.78;5003055;28;20051;-81
2022/08/13 10:11:59;;;;;;;2.70;2.45;;;;;;;25.41;34.03;99825.53;5018452;28;21198;-81
2022/08/13 10:14:47;;;;;;;2.70;2.25;;;;;;;25.40;34.32;99832.84;4965723;28;20121;-86
2022/08/13 10:17:26;;;;;;;5.13;1.90;;;;;;;25.44;33.36;99838.63;5001065;28;20038;-85
2022/08/13 10:20:18;;;;;;;2.20;2.05;;;;;;;25.47;33.35;99824.59;5007287;28;20041;-86
2022/08/13 10:22:46;;;;;;;;;;;;;;;25.35;31.52;99827.28;5037430;28;20417;-87
2022/08/13 10:25:14;;;;;;;2.60;1.85;;;;;;;25.50;32.36;99833.09;4989976;28;19940;-87
2022/08/13 10:27:47;;;;;;;4.25;2.35;;;;;;;25.50;31.62;99824.94;5007346;28;20050;-81
2022/08/13 10:30:22;;;;;;;4.15;2.35;;;;;;;25.53;32.45;99827.19;5003625;28;20120;-82
2022/08/13 10:33:12;;;;;;;3.40;2.13;;;;;;;25.54;32.00;99819.88;4957808;28;20471;-81
2022/08/13 10:35:51;;;;;;;2.53;2.13;;;;;;;25.53;32.16;99820.94;5020279;28;20895;-81
2022/08/13 10:38:27;;;;;;;5.53;2.20;;;;;;;25.56;31.67;99818.56;5007522;28;20065;-80
2022/08/13 10:41:10;;;;;;;4.05;2.20;;;;;;;25.58;31.06;99820.25;4982526;28;20050;-81
2022/08/13 10:43:40;;;;;;;2.30;2.00;;;;;;;25.58;31.45;99814.81;5004928;28;20060;-87
2022/08/13 10:46:22;;;;;;;3.45;2.33;;;;;;;25.58;33.38;99793.06;4982537;28;20381;-87
2022/08/13 10:48:55;;;;;;;3.00;2.17;;;;;;;25.64;34.94;99802.97;4976191;28;20136;-83
2022/08/13 10:51:28;;;;;;;3.78;2.10;;;;;;;25.64;31.99;99798.34;4999723;28;20112;-81
2022/08/13 10:53:59;;;;;;;6.43;2.80;;;;;;;25.71;33.04;99796.34;5028529;28;20053;-82
2022/08/13 10:56:30;;;;;;;4.40;2.20;;;;;;;25.72;32.81;99792.59;5021626;28;20060;-81
2022/08/13 10:58:58;;;;;;;4.00;2.70;;;;;;;25.75;33.40;99792.13;5017459;28;20041;-81
2022/08/13 11:01:26;;;;;;;3.65;2.33;;;;;;;25.79;33.42;99795.16;5021542;28;20444;-84
2022/08/13 11:03:56;;;;;;;2.53;2.33;;;;;;;25.85;33.56;99793.41;5004590;28;20044;-90
2022/08/13 11:06:33;;;;;;;7.18;2.58;;;;;;;25.87;34.77;99789.41;5003286;28;20666;-85
2022/08/13 11:09:01;;;;;;;4.55;2.40;;;;;;;25.90;33.13;99782.66;5004791;28;20111;-90
2022/08/13 17:11:07;;;;;;;2.80;2.60;;;;;;;26.59;28.40;99508.56;4978903;28;20699;-87
2022/08/13 17:13:35;;;;;;;3.22;2.92;;;;;;;26.65;28.11;99498.56;5043695;28;20072;-85
2022/08/13 17:16:05;;;;;;;3.13;2.83;;;;;;;26.68;28.33;99500.78;5023764;28;20041;-82
2022/08/13 17:18:43;;;;;;;3.78;2.60;;;;;;;26.73;28.16;99506.31;5030287;28;20045;-87
2022/08/13 17:21:15;;;;;;;5.13;3.08;;;;;;;26.79;28.19;99496.31;5022293;28;20739;-85
2022/08/13 17:24:07;;;;;;;5.80;3.33;;;;;;;26.81;28.82;99503.16;5038809;28;20049;-85
2022/08/13 17:26:40;;;;;;;3.78;3.20;;;;;;;26.82;28.82;99501.28;5018293;28;20045;-84
2022/08/13 17:29:23;;;;;;;3.55;2.80;;;;;;;26.84;28.54;99504.56;5036946;28;20042;-86
2022/08/13 17:32:12;;;;;;;3.10;2.90;;;;;;;26.89;28.00;99501.09;5046740;28;20048;-89
2022/08/13 17:34:39;;;;;;;3.33;2.97;;;;;;;26.91;28.51;99498.94;5024809;28;20429;-88
2022/08/13 17:37:10;;;;;;;3.40;3.10;;;;;;;26.90;29.11;99495.41;5057633;28;20045;-88
2022/08/13 17:39:43;;;;;;;3.28;2.97;;;;;;;26.88;29.45;99497.53;5021856;28;20061;-86
2022/08/13 17:42:21;;;;;;;5.03;3.30;;;;;;;26.87;29.02;99495.91;5045058;28;20060;-84
2022/08/13 17:45:09;;;;;;;4.57;3.33;;;;;;;26.90;28.70;99492.66;5019039;28;20045;-84
2022/08/13 17:47:58;;;;;;;16.73;4.25;;;;;;;26.91;28.82;99486.13;5008437;28;20049;-85
2022/08/13 17:50:32;;;;;;;15.07;3.80;;;;;;;26.94;28.65;99488.34;5025851;28;20055;-86
2022/08/13 17:53:08;;;;;;;6.85;2.90;;;;;;;26.96;28.65;99488.13;5028206;28;20041;-86
2022/08/13 17:55:35;;;;;;;16.02;3.97;;;;;;;26.95;29.07;99495.47;5030603;28;20053;-84
2022/08/13 17:58:18;;;;;;;3.67;3.38;;;;;;;26.97;28.64;99489.75;5020229;28;20052;-84
2022/08/13 18:00:55;;;;;;;4.53;3.00;;;;;;;26.95;28.68;99487.28;5046984;28;20046;-83
2022/08/13 18:03:22;;;;;;;3.65;3.10;;;;;;;26.98;28.58;99480.50;5044575;28;20045;-83
2022/08/13 18:06:01;;;;;;;3.78;3.00;;;;;;;27.00;28.56;99495.53;5040769;28;20053;-83
2022/08/13 18:08:49;;;;;;;3.60;3.30;;;;;;;26.98;28.84;99496.88;5043804;28;20045;-83
2022/08/13 18:11:18;;;;;;;3.63;3.28;;;;;;;26.99;29.34;99493.06;5048497;28;20050;-83
2022/08/13 18:13:44;;;;;;;3.80;3.40;;;;;;;26.95;29.50;99489.19;5034845;28;20405;-83
2022/08/13 18:16:29;;;;;;;4.00;3.58;;;;;;;26.90;29.45;99487.22;5040665;28;20045;-83
2022/08/13 18:19:18;;;;;;;3.97;3.65;;;;;;;26.90;29.49;99489.13;5025126;28;20477;-83
2022/08/13 18:21:46;;;;;;;7.35;3.55;;;;;;;26.89;29.71;99487.47;5027970;28;20106;-83
2022/08/13 18:24:13;;;;;;;3.80;3.50;;;;;;;26.84;29.86;99480.88;5008241;28;20051;-83
2022/08/13 18:26:53;;;;;;;5.53;3.60;;;;;;;26.83;30.04;99483.84;5040565;28;20041;-82